ADDS METAR Data INFO
IDs: Format: Raw Decoded Include TAF

Data at: 1550 UTC 12 Dec 2017

K1M4 121456Z AUTO 33010G19KT 10SM BKN041 07/01 A3008 RMK AO2 SLP211 T00670011 51024
K1M4 121356Z AUTO 33005KT 10SM CLR 06/00 A3007 RMK AO2 SLP205 T00610000
K1M4 121256Z AUTO 31003KT 10SM FEW055 05/M01 A3004 RMK AO2 SLP199 T00501006
K1M4 121156Z AUTO 32005KT 10SM FEW055 05/M01 A3001 RMK AO2 SLP186 T00501011 10083 20050 53015
K1M4 121056Z AUTO 33005KT 10SM CLR 06/M02 A2998 RMK AO2 SLP175 T00561017
K1M4 120956Z AUTO 34006KT 10SM CLR 06/M01 A2997 RMK AO2 SLP174 T00611011
K1M4 120856Z AUTO 31005KT 10SM CLR 07/M01 A2996 RMK AO2 SLP170 T00671006 53003
K1M4 120756Z AUTO 33005KT 10SM CLR 08/00 A2996 RMK AO2 SLP169 T00780000
K1M4 120656Z AUTO 32005KT 10SM CLR 07/01 A2995 RMK AO2 SLP165 T00720006
K1M4 120556Z AUTO 26004KT 10SM CLR 08/01 A2995 RMK AO2 SLP167 T00830006 10106 20078 56007
K1M4 120456Z AUTO VRB05KT 10SM CLR 08/01 A2995 RMK AO2 SLP168 T00830006 401561033
K1M4 120356Z AUTO 23006KT 10SM CLR 08/01 A2996 RMK AO2 SLP168 T00830011
K1M4 120256Z AUTO 21008KT 10SM CLR 09/01 A2997 RMK AO2 SLP174 T00890011 56007
K1M4 120156Z AUTO 21008KT 10SM CLR 10/02 A2998 RMK AO2 SLP172 T01000017
K1M4 120056Z AUTO 21009KT 10SM CLR 11/02 A2998 RMK AO2 SLP179 T01060017
K1M4 112356Z AUTO 20006KT 10SM CLR 10/01 A3000 RMK AO2 SLP183 T01000006 10156 20094 56013
K1M4 112256Z AUTO 18006KT 10SM CLR 11/01 A3000 RMK AO2 SLP183 T01110006
K1M4 112156Z AUTO 23009KT 10SM CLR 14/00 A3002 RMK AO2 SLP192 T01440000
K1M4 112056Z AUTO 23008KT 10SM CLR 16/00 A3003 RMK AO2 SLP194 T01560000 56027
K1M4 111956Z AUTO 23009KT 10SM CLR 16/00 A3005 RMK AO2 SLP200 T01560000
K1M4 111856Z AUTO VRB05KT 10SM CLR 15/M01 A3008 RMK AO2 SLP208 T01501006
K1M4 111756Z AUTO 23009KT 10SM CLR 14/00 A3012 RMK AO2 SLP223 T01390000 10139 21033 58024
K1M4 111656Z AUTO 23007KT 10SM CLR 12/00 A3015 RMK AO2 SLP237 T01170000
K1M4 111556Z AUTO 21003KT 10SM CLR 09/00 A3017 RMK AO2 SLP240 T00890000
K1M4 111456Z AUTO 23004KT 10SM CLR 06/M01 A3019 RMK AO2 SLP248 T00611006 50001
K1M4 111356Z AUTO 21004KT 10SM CLR 02/M01 A3019 RMK AO2 SLP251 T00221006
K1M4 111256Z AUTO 00000KT 10SM CLR M03/M04 A3018 RMK AO2 SLP246 T10331044
K1M4 111156Z AUTO 00000KT 10SM CLR M02/M03 A3019 RMK AO2 SLP246 T10221033 10028 21022 56005
K1M4 111056Z AUTO 22004KT 10SM CLR 00/M03 A3019 RMK AO2 SLP251 T00001028
K1M4 110956Z AUTO 20005KT 10SM CLR 00/M02 A3019 RMK AO2 SLP249 T00001022
K1M4 110856Z AUTO 00000KT 10SM CLR 01/M03 A3020 RMK AO2 SLP251 T00061033 56007
K1M4 110756Z AUTO 22004KT 10SM CLR 02/M03 A3021 RMK AO2 SLP253 T00171033
K1M4 110656Z AUTO 21005KT 10SM CLR 02/M03 A3021 RMK AO2 SLP253 T00171033
K1M4 110456Z AUTO 22005KT 10SM CLR 02/M04 A3024 RMK AO2 SLP266 T00221039 400941067
K1M4 110356Z AUTO 22005KT 10SM CLR 03/M04 A3025 RMK AO2 SLP272 T00281039